Time;durP1;ratioP1;P1;durP2;ratioP2;P2;SDS_P1;SDS_P2;PMS_P1;PMS_P2;Temp;Humidity;BMP_temperature;BMP_pressure;BME280_temperature;BME280_humidity;BME280_pressure;Samples;Min_cycle;Max_cycle;Signal;HPM_P1;HPM_P2
2023/10/10 00:00:57;;;;;;;;;;;17.30;87.00;;;;;;5066589;28;19916;-79
2023/10/10 00:03:24;;;;;;;;;;;17.20;86.90;;;;;;5072292;28;20401;-79
2023/10/10 00:05:49;;;;;;;;;;;17.20;87.00;;;;;;5065051;28;19987;-79
2023/10/10 00:08:18;;;;;;;;;;;17.20;87.20;;;;;;5073777;28;19920;-78
2023/10/10 00:10:45;;;;;;;;;;;17.10;87.40;;;;;;5069544;28;20393;-79
2023/10/10 00:13:12;;;;;;;;;;;17.10;87.30;;;;;;5070935;28;19916;-79
2023/10/10 00:15:42;;;;;;;;;;;17.10;87.30;;;;;;5074941;28;20400;-78
2023/10/10 00:18:11;;;;;;;;;;;17.10;87.60;;;;;;5068846;28;19966;-79
2023/10/10 00:20:44;;;;;;;;;;;17.10;87.70;;;;;;5071838;28;20437;-78
2023/10/10 00:23:11;;;;;;;;;;;17.10;87.50;;;;;;5073971;28;19925;-79
2023/10/10 00:25:38;;;;;;;;;;;17.10;87.50;;;;;;5076075;28;19909;-79
2023/10/10 00:28:16;;;;;;;;;;;17.10;87.40;;;;;;5074815;28;19921;-79
2023/10/10 00:30:43;;;;;;;;;;;17.10;87.30;;;;;;5082482;28;20022;-79
2023/10/10 00:33:09;;;;;;;;;;;17.10;87.10;;;;;;5071019;28;19921;-79
2023/10/10 00:35:35;;;;;;;;;;;17.10;87.10;;;;;;5082451;28;19995;-79
2023/10/10 00:38:05;;;;;;;;;;;17.20;87.10;;;;;;5083998;28;19912;-79
2023/10/10 00:40:31;;;;;;;;;;;17.20;86.60;;;;;;5083730;28;19958;-79
2023/10/10 00:42:58;;;;;;;;;;;17.20;86.60;;;;;;5098251;28;19909;-78
2023/10/10 00:45:27;;;;;;;;;;;17.20;86.30;;;;;;5072596;28;20439;-79
2023/10/10 00:47:53;;;;;;;;;;;17.10;86.50;;;;;;5073279;28;19956;-78
2023/10/10 00:50:20;;;;;;;;;;;17.10;86.60;;;;;;5069553;28;19912;-79
2023/10/10 00:52:48;;;;;;;;;;;17.10;86.60;;;;;;5072421;28;19908;-79
2023/10/10 00:55:14;;;;;;;;;;;17.10;86.70;;;;;;5073306;28;20073;-79
2023/10/10 00:57:40;;;;;;;;;;;17.10;86.70;;;;;;5070109;28;20405;-79
2023/10/10 01:00:14;;;;;;;;;;;17.10;86.80;;;;;;5072956;28;19972;-80
2023/10/10 01:02:40;;;;;;;;;;;17.20;86.60;;;;;;5071036;28;19916;-78
2023/10/10 01:05:12;;;;;;;;;;;17.20;86.60;;;;;;5067573;28;20473;-79
2023/10/10 01:07:47;;;;;;;;;;;17.20;86.60;;;;;;5071577;28;19909;-79
2023/10/10 01:10:16;;;;;;;;;;;17.30;86.40;;;;;;5073553;28;19908;-79
2023/10/10 01:12:42;;;;;;;;;;;17.30;86.20;;;;;;5072772;28;19943;-79
2023/10/10 01:15:24;;;;;;;;;;;17.40;86.20;;;;;;5070396;28;20393;-79
2023/10/10 01:17:50;;;;;;;;;;;17.40;86.20;;;;;;5070533;28;20007;-79
2023/10/10 01:20:19;;;;;;;;;;;17.40;85.90;;;;;;5067690;28;19962;-79
2023/10/10 01:22:46;;;;;;;;;;;17.40;85.90;;;;;;5077010;28;19912;-79
2023/10/10 01:31:04;;;;;;;;;;;17.40;85.60;;;;;;5035832;28;20475;-79
2023/10/10 01:33:36;;;;;;;;;;;17.40;85.60;;;;;;5046837;28;20317;-78
2023/10/10 01:36:19;;;;;;;;;;;17.40;86.00;;;;;;5070075;28;19919;-78
2023/10/10 01:38:59;;;;;;;;;;;17.40;85.80;;;;;;5078834;28;19919;-79
2023/10/10 01:41:31;;;;;;;;;;;17.40;85.80;;;;;;5077616;28;19916;-79
2023/10/10 01:44:08;;;;;;;;;;;17.50;85.80;;;;;;5078227;28;20277;-78
2023/10/10 01:46:37;;;;;;;;;;;17.40;85.80;;;;;;5078364;28;19919;-79
2023/10/10 01:49:02;;;;;;;;;;;17.50;85.80;;;;;;5073805;28;20302;-79
2023/10/10 01:51:34;;;;;;;;;;;17.50;86.00;;;;;;5078903;28;19909;-80
2023/10/10 01:54:03;;;;;;;;;;;17.50;85.90;;;;;;5077739;28;19982;-78
2023/10/10 01:56:29;;;;;;;;;;;17.50;85.70;;;;;;5079175;28;20339;-80
2023/10/10 01:58:54;;;;;;;;;;;17.60;85.40;;;;;;5074272;28;19928;-79
2023/10/10 02:01:20;;;;;;;;;;;17.50;85.60;;;;;;5078195;28;19959;-79
2023/10/10 02:03:46;;;;;;;;;;;17.50;85.80;;;;;;5072994;28;19912;-80
2023/10/10 02:06:26;;;;;;;;;;;17.40;85.70;;;;;;5074834;28;19912;-80
2023/10/10 02:08:51;;;;;;;;;;;17.40;86.00;;;;;;5075626;28;19915;-79
2023/10/10 02:11:20;;;;;;;;;;;17.50;85.70;;;;;;5075398;28;19909;-80
2023/10/10 02:13:50;;;;;;;;;;;17.40;85.80;;;;;;5062164;28;19924;-79
2023/10/10 02:16:18;;;;;;;;;;;17.40;85.60;;;;;;5071827;28;19912;-79
2023/10/10 02:18:44;;;;;;;;;;;17.30;85.60;;;;;;5069674;28;20380;-79
2023/10/10 02:21:16;;;;;;;;;;;17.30;85.70;;;;;;5075219;28;19966;-80
2023/10/10 02:23:46;;;;;;;;;;;17.20;86.00;;;;;;5073783;28;20003;-79
2023/10/10 02:26:23;;;;;;;;;;;17.20;85.80;;;;;;5075846;28;19915;-79
2023/10/10 02:28:49;;;;;;;;;;;17.20;85.80;;;;;;5077365;28;19916;-80
2023/10/10 02:31:16;;;;;;;;;;;17.10;86.00;;;;;;5075445;28;19909;-79
2023/10/10 02:34:10;;;;;;;;;;;17.10;86.30;;;;;;5069722;28;20011;-79
2023/10/10 02:36:36;;;;;;;;;;;17.20;85.80;;;;;;5075303;28;19913;-79
2023/10/10 02:39:18;;;;;;;;;;;17.20;85.70;;;;;;5074467;28;20350;-79
2023/10/10 02:41:49;;;;;;;;;;;17.20;85.90;;;;;;5075245;28;19912;-80
2023/10/10 02:44:26;;;;;;;;;;;17.30;85.80;;;;;;5073350;28;19912;-80
2023/10/10 02:46:54;;;;;;;;;;;17.30;85.80;;;;;;5073250;28;19912;-80
2023/10/10 02:49:29;;;;;;;;;;;17.20;85.70;;;;;;5073559;28;20270;-80
2023/10/10 02:51:55;;;;;;;;;;;17.20;85.70;;;;;;5079219;28;20328;-79
2023/10/10 02:57:39;;;;;;;;;;;17.20;85.40;;;;;;5023206;28;19971;-80
2023/10/10 03:02:54;;;;;;;;;;;17.20;85.40;;;;;;5076220;28;19916;-80
2023/10/10 03:08:18;;;;;;;;;;;17.30;85.40;;;;;;5075231;28;20322;-80
2023/10/10 03:10:46;;;;;;;;;;;17.20;85.70;;;;;;5074151;28;20281;-80
2023/10/10 03:15:56;;;;;;;;;;;17.20;85.50;;;;;;5076581;28;19923;-79
2023/10/10 03:18:29;;;;;;;;;;;17.30;85.50;;;;;;5070960;28;20388;-80
2023/10/10 03:23:41;;;;;;;;;;;17.30;85.60;;;;;;5070866;28;19908;-79
2023/10/10 03:26:06;;;;;;;;;;;17.30;85.60;;;;;;5073777;28;19908;-79
2023/10/10 03:28:41;;;;;;;;;;;17.30;85.80;;;;;;5074331;28;20452;-80
2023/10/10 05:25:07;;;;;;;;;;;16.50;88.40;;;;;;5074053;28;20406;-86
2023/10/10 05:27:33;;;;;;;;;;;16.40;88.60;;;;;;5074954;28;19983;-83
2023/10/10 05:29:59;;;;;;;;;;;16.40;88.60;;;;;;5089795;28;19913;-84
2023/10/10 05:32:30;;;;;;;;;;;16.50;88.50;;;;;;5073132;28;19922;-84
2023/10/10 05:34:58;;;;;;;;;;;16.50;88.30;;;;;;5074248;28;19924;-84
2023/10/10 05:37:24;;;;;;;;;;;16.50;88.30;;;;;;5074693;28;19913;-82
2023/10/10 05:39:56;;;;;;;;;;;16.50;88.20;;;;;;5068646;28;19917;-84
2023/10/10 05:42:25;;;;;;;;;;;16.40;88.30;;;;;;5077832;28;19919;-84
2023/10/10 05:44:51;;;;;;;;;;;16.40;88.30;;;;;;5070988;28;20000;-89
2023/10/10 05:47:17;;;;;;;;;;;16.30;88.40;;;;;;5077634;28;20356;-86
2023/10/10 05:49:43;;;;;;;;;;;16.30;88.50;;;;;;5076012;28;20279;-86
2023/10/10 05:52:08;;;;;;;;;;;16.30;88.20;;;;;;5074800;28;19999;-83
2023/10/10 05:54:34;;;;;;;;;;;16.30;88.20;;;;;;5069410;28;20014;-84
2023/10/10 05:56:59;;;;;;;;;;;16.30;88.30;;;;;;5070891;28;19923;-84
2023/10/10 05:59:25;;;;;;;;;;;16.30;88.50;;;;;;5079047;28;20007;-84
2023/10/10 06:01:50;;;;;;;;;;;16.20;88.40;;;;;;5074821;28;22003;-84
2023/10/10 06:04:16;;;;;;;;;;;16.20;88.60;;;;;;5072027;28;19947;-84
2023/10/10 06:06:43;;;;;;;;;;;16.30;88.50;;;;;;5075661;28;19913;-84
2023/10/10 06:09:18;;;;;;;;;;;16.20;88.40;;;;;;5072189;28;19955;-84
2023/10/10 06:11:44;;;;;;;;;;;16.20;88.40;;;;;;5073872;28;19935;-84
2023/10/10 06:14:09;;;;;;;;;;;16.20;88.50;;;;;;5070423;28;20466;-84
2023/10/10 06:16:36;;;;;;;;;;;16.20;88.40;;;;;;5077350;28;19966;-82
2023/10/10 06:19:01;;;;;;;;;;;16.20;88.40;;;;;;5071586;28;19934;-83
2023/10/10 06:21:29;;;;;;;;;;;16.20;88.30;;;;;;5073160;28;20521;-84
2023/10/10 06:23:55;;;;;;;;;;;16.30;88.20;;;;;;5068207;28;20404;-84
2023/10/10 06:26:21;;;;;;;;;;;16.30;88.20;;;;;;5071375;28;19912;-84
2023/10/10 06:28:53;;;;;;;;;;;16.30;88.10;;;;;;5065986;28;20638;-84
2023/10/10 06:31:23;;;;;;;;;;;16.30;88.20;;;;;;5069300;28;20771;-85
2023/10/10 06:33:50;;;;;;;;;;;16.40;87.90;;;;;;5069409;28;19916;-84
2023/10/10 06:39:17;;;;;;;;;;;16.40;87.90;;;;;;5066597;28;19947;-85
2023/10/10 06:41:47;;;;;;;;;;;16.50;87.80;;;;;;5065713;28;20266;-84
2023/10/10 06:44:13;;;;;;;;;;;16.50;87.70;;;;;;5070775;28;20328;-85
2023/10/10 06:46:40;;;;;;;;;;;16.60;87.40;;;;;;5070988;28;19912;-84
2023/10/10 06:49:11;;;;;;;;;;;16.50;87.20;;;;;;5069734;28;20012;-84
2023/10/10 06:51:40;;;;;;;;;;;16.60;87.00;;;;;;5066155;28;19983;-85
2023/10/10 06:54:09;;;;;;;;;;;16.60;87.20;;;;;;5067423;28;20369;-85
2023/10/10 06:56:44;;;;;;;;;;;16.60;87.10;;;;;;5066645;28;20079;-85
2023/10/10 06:59:09;;;;;;;;;;;16.70;87.00;;;;;;5073374;28;19912;-85
2023/10/10 07:01:35;;;;;;;;;;;16.80;86.60;;;;;;5068409;28;19917;-85
2023/10/10 07:04:04;;;;;;;;;;;16.80;86.50;;;;;;5067551;28;20414;-85
2023/10/10 07:06:29;;;;;;;;;;;16.80;86.50;;;;;;5070616;28;19912;-85
2023/10/10 07:11:39;;;;;;;;;;;16.90;86.40;;;;;;5072160;28;20414;-85
2023/10/10 07:14:10;;;;;;;;;;;16.90;86.20;;;;;;5066962;28;19924;-85
2023/10/10 07:16:42;;;;;;;;;;;16.90;86.30;;;;;;5070193;28;19942;-85
2023/10/10 07:19:23;;;;;;;;;;;16.90;86.50;;;;;;5067403;28;19943;-85
2023/10/10 07:21:51;;;;;;;;;;;17.00;86.40;;;;;;5071430;28;19912;-85
2023/10/10 07:24:17;;;;;;;;;;;17.00;85.90;;;;;;5067963;28;19912;-85
2023/10/10 07:26:44;;;;;;;;;;;17.00;85.90;;;;;;5069497;28;20397;-85
2023/10/10 07:29:30;;;;;;;;;;;17.10;85.70;;;;;;5069452;28;19912;-84
2023/10/10 07:32:07;;;;;;;;;;;17.10;85.20;;;;;;5067200;28;19963;-85
2023/10/10 07:34:35;;;;;;;;;;;17.20;84.80;;;;;;5073878;28;19916;-85
2023/10/10 07:37:08;;;;;;;;;;;17.30;84.10;;;;;;5070832;28;20011;-85
2023/10/10 07:39:36;;;;;;;;;;;17.30;84.20;;;;;;5072431;28;20381;-84
2023/10/10 07:42:02;;;;;;;;;;;17.30;84.40;;;;;;5070407;28;19938;-85
2023/10/10 07:44:30;;;;;;;;;;;17.30;84.70;;;;;;5070368;28;19912;-85
2023/10/10 07:47:25;;;;;;;;;;;17.40;84.40;;;;;;5071616;28;19916;-85
2023/10/10 07:49:54;;;;;;;;;;;17.30;84.30;;;;;;5072730;28;19990;-85
2023/10/10 07:52:22;;;;;;;;;;;17.40;84.00;;;;;;5067399;28;19912;-85
2023/10/10 07:54:51;;;;;;;;;;;17.50;84.20;;;;;;5073954;28;19921;-85
2023/10/10 07:57:17;;;;;;;;;;;17.50;84.10;;;;;;5074011;28;19913;-85
2023/10/10 07:59:46;;;;;;;;;;;17.60;83.60;;;;;;5072154;28;19934;-85
2023/10/10 08:02:24;;;;;;;;;;;17.70;83.20;;;;;;5070121;28;19966;-86
2023/10/10 08:04:57;;;;;;;;;;;17.70;83.00;;;;;;5071457;28;19912;-85
2023/10/10 08:07:26;;;;;;;;;;;17.90;82.00;;;;;;5082383;28;19934;-86
2023/10/10 08:10:14;;;;;;;;;;;17.90;82.40;;;;;;5071606;28;19958;-87
2023/10/10 08:12:37;;;;;;;;;;;18.00;82.10;;;;;;5071400;28;19913;-87
2023/10/10 08:15:18;;;;;;;;;;;18.10;81.90;;;;;;5070853;28;19923;-87
2023/10/10 08:17:52;;;;;;;;;;;18.10;82.00;;;;;;5066666;28;19966;-88
2023/10/10 08:21:08;;;;;;;;;;;18.30;80.80;;;;;;5069440;28;19912;-87
2023/10/10 08:23:24;;;;;;;;;;;18.30;80.60;;;;;;5067374;28;19966;-86
2023/10/10 08:25:53;;;;;;;;;;;18.40;79.30;;;;;;5065961;28;19919;-87
2023/10/10 08:28:21;;;;;;;;;;;18.50;78.70;;;;;;5067034;28;19913;-87
2023/10/10 08:30:47;;;;;;;;;;;18.40;78.30;;;;;;5063521;28;19935;-87
2023/10/10 08:33:13;;;;;;;;;;;18.50;77.90;;;;;;5068909;28;19964;-86
2023/10/10 08:35:38;;;;;;;;;;;18.60;77.90;;;;;;5070465;28;19944;-85
2023/10/10 08:38:05;;;;;;;;;;;18.60;77.70;;;;;;5076501;28;19970;-83
2023/10/10 08:40:33;;;;;;;;;;;18.60;77.90;;;;;;5076227;28;19915;-83
2023/10/10 08:42:59;;;;;;;;;;;18.60;77.80;;;;;;5075874;28;19934;-85
2023/10/10 08:45:25;;;;;;;;;;;18.60;77.50;;;;;;5074797;28;20007;-86
2023/10/10 08:48:00;;;;;;;;;;;18.60;78.00;;;;;;5069141;28;19919;-85
2023/10/10 08:50:32;;;;;;;;;;;18.60;77.70;;;;;;5070024;28;20019;-85
2023/10/10 08:52:59;;;;;;;;;;;18.70;77.00;;;;;;5071549;28;19916;-86
2023/10/10 08:55:28;;;;;;;;;;;18.70;77.00;;;;;;5069360;28;19999;-86
2023/10/10 08:57:55;;;;;;;;;;;18.60;77.10;;;;;;5072884;28;19947;-86
2023/10/10 09:00:26;;;;;;;;;;;18.70;77.20;;;;;;5071466;28;19909;-86
2023/10/10 09:02:56;;;;;;;;;;;18.70;77.20;;;;;;5069256;28;19913;-86
2023/10/10 09:05:23;;;;;;;;;;;18.70;77.30;;;;;;5064154;28;19912;-86
2023/10/10 09:07:49;;;;;;;;;;;18.70;77.30;;;;;;5073059;28;19915;-86
2023/10/10 09:10:15;;;;;;;;;;;18.70;77.80;;;;;;5076749;28;19916;-86
2023/10/10 09:12:55;;;;;;;;;;;18.80;77.20;;;;;;5086416;28;19913;-85
2023/10/10 09:15:21;;;;;;;;;;;18.90;77.00;;;;;;5080831;28;19927;-86
2023/10/10 09:17:47;;;;;;;;;;;19.00;76.70;;;;;;5083392;28;19901;-86
2023/10/10 09:20:28;;;;;;;;;;;19.00;76.70;;;;;;5092555;28;19955;-86
2023/10/10 09:22:56;;;;;;;;;;;19.00;76.40;;;;;;5089416;28;19917;-87
2023/10/10 09:25:26;;;;;;;;;;;19.10;74.40;;;;;;5072787;28;19924;-86
2023/10/10 09:27:59;;;;;;;;;;;19.30;74.30;;;;;;5069311;28;19944;-86
2023/10/10 09:30:31;;;;;;;;;;;19.40;72.80;;;;;;5064790;28;19913;-86
2023/10/10 09:33:00;;;;;;;;;;;19.50;72.20;;;;;;5069244;28;19919;-86
2023/10/10 09:35:28;;;;;;;;;;;19.40;72.20;;;;;;5067960;28;19928;-86
2023/10/10 09:37:54;;;;;;;;;;;19.50;71.30;;;;;;5070400;28;19935;-86
2023/10/10 09:40:20;;;;;;;;;;;19.60;71.50;;;;;;5071533;28;19912;-85
2023/10/10 09:45:52;;;;;;;;;;;19.80;70.70;;;;;;5071273;28;19974;-85
2023/10/10 09:52:47;;;;;;;;;;;19.80;69.20;;;;;;5054969;28;19954;-86
2023/10/10 09:54:15;;;;;;;;;;;19.80;69.00;;;;;;5074242;28;19919;-85
2023/10/10 09:56:48;;;;;;;;;;;19.80;68.20;;;;;;5073376;28;19919;-86
2023/10/10 09:59:14;;;;;;;;;;;19.80;68.30;;;;;;5074639;28;19920;-86
2023/10/10 10:01:45;;;;;;;;;;;19.90;67.60;;;;;;5074397;28;20369;-87
2023/10/10 10:04:18;;;;;;;;;;;20.00;66.40;;;;;;5073563;28;19923;-86
2023/10/10 10:06:51;;;;;;;;;;;20.10;66.20;;;;;;5073112;28;20389;-86
2023/10/10 10:09:38;;;;;;;;;;;20.10;66.20;;;;;;5075422;28;19992;-85
2023/10/10 10:12:19;;;;;;;;;;;20.10;65.40;;;;;;5065783;28;19919;-85
2023/10/10 10:15:03;;;;;;;;;;;20.10;65.70;;;;;;5071567;28;19917;-85
2023/10/10 10:17:47;;;;;;;;;;;20.00;65.80;;;;;;5075325;28;19944;-85
2023/10/10 10:20:47;;;;;;;;;;;20.10;65.50;;;;;;5074076;28;19912;-85
2023/10/10 10:23:26;;;;;;;;;;;20.10;65.60;;;;;;5073690;28;19916;-85
2023/10/10 10:26:04;;;;;;;;;;;20.10;66.70;;;;;;5072030;28;20011;-86
2023/10/10 10:28:34;;;;;;;;;;;20.20;66.00;;;;;;5070159;28;19912;-85
2023/10/10 10:31:07;;;;;;;;;;;20.20;65.30;;;;;;5075414;28;19916;-85
2023/10/10 10:33:36;;;;;;;;;;;20.30;63.80;;;;;;5073701;28;19918;-86
2023/10/10 10:36:14;;;;;;;;;;;20.30;64.30;;;;;;5072687;28;20281;-87
2023/10/10 10:38:45;;;;;;;;;;;20.30;64.00;;;;;;5076791;28;20379;-86
2023/10/10 10:41:17;;;;;;;;;;;20.30;63.60;;;;;;5074918;28;20504;-85
2023/10/10 10:43:49;;;;;;;;;;;20.40;62.70;;;;;;5068988;28;19913;-85
2023/10/10 10:46:15;;;;;;;;;;;20.40;63.80;;;;;;5072016;28;19924;-85
2023/10/10 10:48:47;;;;;;;;;;;20.30;64.10;;;;;;5073505;28;19952;-86
2023/10/10 10:51:22;;;;;;;;;;;20.40;64.50;;;;;;5074213;28;19946;-86
2023/10/10 10:53:51;;;;;;;;;;;20.40;64.90;;;;;;5073381;28;19927;-85
2023/10/10 10:59:35;;;;;;;;;;;20.60;65.00;;;;;;5070006;28;20475;-86
2023/10/10 11:01:41;;;;;;;;;;;20.50;64.70;;;;;;5067001;28;19963;-86
2023/10/10 11:04:13;;;;;;;;;;;20.50;65.50;;;;;;5073424;28;20280;-87
2023/10/10 11:06:48;;;;;;;;;;;20.50;65.40;;;;;;5073976;28;19934;-86
2023/10/10 11:09:23;;;;;;;;;;;20.50;65.30;;;;;;5072543;28;20449;-85
2023/10/10 11:11:56;;;;;;;;;;;20.60;64.80;;;;;;5075482;28;19912;-85
2023/10/10 11:14:23;;;;;;;;;;;20.60;65.40;;;;;;5063059;28;19920;-85
2023/10/10 11:16:56;;;;;;;;;;;20.60;65.00;;;;;;5072442;28;19921;-87
2023/10/10 11:21:50;;;;;;;;;;;20.70;63.40;;;;;;5073425;28;20419;-88
2023/10/10 11:24:23;;;;;;;;;;;20.80;63.20;;;;;;5068309;28;19924;-87
2023/10/10 11:26:56;;;;;;;;;;;20.90;63.10;;;;;;5062131;28;20457;-87
2023/10/10 11:29:27;;;;;;;;;;;20.90;62.30;;;;;;5069531;28;19939;-85
2023/10/10 11:32:06;;;;;;;;;;;21.00;61.80;;;;;;5071349;28;20533;-85
2023/10/10 11:34:42;;;;;;;;;;;21.00;60.10;;;;;;5070723;28;19967;-86
2023/10/10 11:37:14;;;;;;;;;;;21.10;58.90;;;;;;5074566;28;19908;-87
2023/10/10 11:39:49;;;;;;;;;;;21.10;57.90;;;;;;5073162;28;19947;-86
2023/10/10 11:42:24;;;;;;;;;;;21.10;57.60;;;;;;5073581;28;19927;-86
2023/10/10 11:45:06;;;;;;;;;;;21.20;58.30;;;;;;5069836;28;19913;-87
2023/10/10 11:47:42;;;;;;;;;;;21.20;57.80;;;;;;5072040;28;19908;-87
2023/10/10 11:50:08;;;;;;;;;;;21.10;59.00;;;;;;5071445;28;20015;-86
2023/10/10 11:52:34;;;;;;;;;;;21.20;57.60;;;;;;5064574;28;19916;-86
2023/10/10 11:55:00;;;;;;;;;;;21.30;58.00;;;;;;5070857;28;19912;-87
2023/10/10 11:57:28;;;;;;;;;;;21.40;58.50;;;;;;5072535;28;19913;-87
2023/10/10 12:00:07;;;;;;;;;;;21.50;57.70;;;;;;5070873;28;20370;-91
2023/10/10 12:02:39;;;;;;;;;;;21.60;56.70;;;;;;5071443;28;19913;-87
2023/10/10 12:05:36;;;;;;;;;;;21.50;57.50;;;;;;5071230;28;19912;-86
2023/10/10 12:08:04;;;;;;;;;;;21.50;57.90;;;;;;5069039;28;19920;-87
2023/10/10 12:10:49;;;;;;;;;;;21.60;57.50;;;;;;5070473;28;19912;-86
2023/10/10 12:13:33;;;;;;;;;;;21.70;56.60;;;;;;5066716;28;19916;-87
2023/10/10 12:15:59;;;;;;;;;;;21.80;56.40;;;;;;5071672;28;19950;-87
2023/10/10 12:18:31;;;;;;;;;;;21.80;56.70;;;;;;5071471;28;20400;-87
2023/10/10 12:21:01;;;;;;;;;;;21.90;55.90;;;;;;5071636;28;19955;-87
2023/10/10 12:23:27;;;;;;;;;;;21.90;55.60;;;;;;5066226;28;19912;-87
2023/10/10 12:25:54;;;;;;;;;;;21.90;56.00;;;;;;5069572;28;19965;-87
2023/10/10 12:28:20;;;;;;;;;;;21.90;56.10;;;;;;5066753;28;20392;-87
2023/10/10 12:30:45;;;;;;;;;;;22.00;55.60;;;;;;5068830;28;19917;-87
2023/10/10 12:33:12;;;;;;;;;;;22.00;55.10;;;;;;5069415;28;19913;-87
2023/10/10 12:35:42;;;;;;;;;;;22.10;54.40;;;;;;5066765;28;19928;-87
2023/10/10 12:38:08;;;;;;;;;;;22.10;53.70;;;;;;5067247;28;20421;-85
2023/10/10 12:40:34;;;;;;;;;;;22.10;53.80;;;;;;5071413;28;19917;-84
2023/10/10 12:43:03;;;;;;;;;;;22.10;53.90;;;;;;5068693;28;19970;-86
2023/10/10 12:45:29;;;;;;;;;;;22.10;54.50;;;;;;5069586;28;19912;-86
2023/10/10 12:47:57;;;;;;;;;;;22.10;55.00;;;;;;5072135;28;19951;-86
2023/10/10 12:50:26;;;;;;;;;;;22.10;55.20;;;;;;5069547;28;19919;-86
2023/10/10 12:53:07;;;;;;;;;;;22.10;54.80;;;;;;5072637;28;20344;-86
2023/10/10 12:55:36;;;;;;;;;;;22.30;53.40;;;;;;5070548;28;19952;-85
2023/10/10 12:58:15;;;;;;;;;;;22.30;53.60;;;;;;5067643;28;20271;-86
2023/10/10 13:00:48;;;;;;;;;;;22.30;53.40;;;;;;5070980;28;19924;-86
2023/10/10 13:03:13;;;;;;;;;;;22.20;53.60;;;;;;5069779;28;19993;-86
2023/10/10 13:05:39;;;;;;;;;;;22.30;54.10;;;;;;5075299;28;19912;-86
2023/10/10 13:08:06;;;;;;;;;;;22.40;53.60;;;;;;5073624;28;19995;-86
2023/10/10 13:10:37;;;;;;;;;;;22.40;53.90;;;;;;5072616;28;19912;-86
2023/10/10 13:13:07;;;;;;;;;;;22.50;54.30;;;;;;5066764;28;19970;-84
2023/10/10 13:15:47;;;;;;;;;;;22.50;54.50;;;;;;5061263;28;19927;-85
2023/10/10 13:18:23;;;;;;;;;;;22.50;54.40;;;;;;5076033;28;19913;-80
2023/10/10 13:20:51;;;;;;;;;;;22.60;54.80;;;;;;5069150;28;21838;-80
2023/10/10 13:23:17;;;;;;;;;;;22.70;54.30;;;;;;5071689;28;19970;-79
2023/10/10 13:25:43;;;;;;;;;;;22.70;54.30;;;;;;5078734;28;19908;-80
2023/10/10 13:28:17;;;;;;;;;;;22.70;54.90;;;;;;5076389;28;20380;-79
2023/10/10 13:30:46;;;;;;;;;;;22.80;54.10;;;;;;5078218;28;19993;-79
2023/10/10 13:33:15;;;;;;;;;;;22.70;54.60;;;;;;5077411;28;19917;-79
2023/10/10 13:35:41;;;;;;;;;;;22.70;54.60;;;;;;5078155;28;19912;-80
2023/10/10 13:38:07;;;;;;;;;;;22.70;54.70;;;;;;5075257;28;19912;-79
2023/10/10 13:40:37;;;;;;;;;;;22.60;54.70;;;;;;5077195;28;19913;-80
2023/10/10 13:43:22;;;;;;;;;;;22.60;54.60;;;;;;5073053;28;20383;-80
2023/10/10 13:45:50;;;;;;;;;;;22.60;54.70;;;;;;5079680;28;19908;-80
2023/10/10 13:48:18;;;;;;;;;;;22.70;55.20;;;;;;5081034;28;20011;-80
2023/10/10 13:50:46;;;;;;;;;;;22.60;55.10;;;;;;5077200;28;19995;-80
2023/10/10 13:53:12;;;;;;;;;;;22.60;55.60;;;;;;5075592;28;19908;-80
2023/10/10 13:55:42;;;;;;;;;;;22.60;53.70;;;;;;5077318;28;19913;-78
2023/10/10 13:58:12;;;;;;;;;;;22.60;54.00;;;;;;5069699;28;19912;-80
2023/10/10 14:00:39;;;;;;;;;;;22.60;53.90;;;;;;5067455;28;19912;-80
2023/10/10 14:03:05;;;;;;;;;;;22.60;53.40;;;;;;5075583;28;19908;-79
2023/10/10 14:05:33;;;;;;;;;;;22.70;53.80;;;;;;5074277;28;19916;-80
2023/10/10 14:08:00;;;;;;;;;;;22.60;54.10;;;;;;5074580;28;20298;-79
2023/10/10 14:10:26;;;;;;;;;;;22.60;53.60;;;;;;5075871;28;19909;-80
2023/10/10 14:12:51;;;;;;;;;;;22.60;54.00;;;;;;5071240;28;19919;-80
2023/10/10 14:15:20;;;;;;;;;;;22.60;54.10;;;;;;5075225;28;19916;-80
2023/10/10 14:17:49;;;;;;;;;;;22.60;53.30;;;;;;5074326;28;20194;-79
2023/10/10 14:20:21;;;;;;;;;;;22.60;53.70;;;;;;5073954;28;19920;-79
2023/10/10 14:22:49;;;;;;;;;;;22.70;53.40;;;;;;5073687;28;19920;-79
2023/10/10 14:25:15;;;;;;;;;;;22.60;53.70;;;;;;5075068;28;20003;-79
2023/10/10 14:27:43;;;;;;;;;;;22.60;54.00;;;;;;5073422;28;19919;-79
2023/10/10 14:30:23;;;;;;;;;;;22.60;54.40;;;;;;5068135;28;20317;-79
2023/10/10 14:32:54;;;;;;;;;;;22.60;54.60;;;;;;5069989;28;19999;-79
2023/10/10 14:35:23;;;;;;;;;;;22.60;54.60;;;;;;5073445;28;19916;-79
2023/10/10 14:37:54;;;;;;;;;;;22.50;55.60;;;;;;5072573;28;19912;-79
2023/10/10 14:40:22;;;;;;;;;;;22.50;55.20;;;;;;5072975;28;19981;-78
2023/10/10 14:42:52;;;;;;;;;;;22.50;56.10;;;;;;5072140;28;19912;-79
2023/10/10 14:45:28;;;;;;;;;;;22.50;56.00;;;;;;5072848;28;19916;-79
2023/10/10 14:47:56;;;;;;;;;;;22.40;56.70;;;;;;5073495;28;19999;-79
2023/10/10 14:50:23;;;;;;;;;;;22.40;57.20;;;;;;5086436;28;19920;-80
2023/10/10 14:52:52;;;;;;;;;;;22.30;57.50;;;;;;5071195;28;19921;-86
2023/10/10 14:55:24;;;;;;;;;;;22.40;57.10;;;;;;5066342;28;19951;-81
2023/10/10 14:57:54;;;;;;;;;;;22.40;56.70;;;;;;5070459;28;19980;-80
2023/10/10 15:00:24;;;;;;;;;;;22.50;56.90;;;;;;5073510;28;20011;-84
2023/10/10 15:02:53;;;;;;;;;;;22.40;57.70;;;;;;5074415;28;19954;-81
2023/10/10 15:05:25;;;;;;;;;;;22.40;57.10;;;;;;5070236;28;19916;-81
2023/10/10 15:07:52;;;;;;;;;;;22.40;57.40;;;;;;5085743;28;19913;-81
2023/10/10 15:10:25;;;;;;;;;;;22.60;56.50;;;;;;5074888;28;19916;-81
2023/10/10 15:12:52;;;;;;;;;;;22.60;56.40;;;;;;5072014;28;19913;-82
2023/10/10 15:15:17;;;;;;;;;;;22.60;55.80;;;;;;5069954;28;19970;-80
2023/10/10 15:17:43;;;;;;;;;;;22.70;56.10;;;;;;5077155;28;19913;-81
2023/10/10 15:20:12;;;;;;;;;;;22.70;56.70;;;;;;5071901;28;20259;-81
2023/10/10 15:22:41;;;;;;;;;;;22.60;57.20;;;;;;5068820;28;19927;-80
2023/10/10 15:25:10;;;;;;;;;;;22.60;58.20;;;;;;5071243;28;19913;-82
2023/10/10 15:27:40;;;;;;;;;;;22.60;58.00;;;;;;5070834;28;19913;-83
2023/10/10 15:30:08;;;;;;;;;;;22.50;58.40;;;;;;5071594;28;19916;-82
2023/10/10 15:32:43;;;;;;;;;;;22.70;57.20;;;;;;5063846;28;20464;-82
2023/10/10 15:35:09;;;;;;;;;;;22.70;56.90;;;;;;5067569;28;19916;-81
2023/10/10 15:37:41;;;;;;;;;;;22.70;55.90;;;;;;5068339;28;19972;-82
2023/10/10 15:40:08;;;;;;;;;;;22.80;56.20;;;;;;5066600;28;19916;-83
2023/10/10 15:42:34;;;;;;;;;;;22.70;56.70;;;;;;5071798;28;19955;-82
2023/10/10 15:44:59;;;;;;;;;;;22.60;57.30;;;;;;5071122;28;19921;-81
2023/10/10 15:47:25;;;;;;;;;;;22.50;58.70;;;;;;5072489;28;19920;-81
2023/10/10 15:49:56;;;;;;;;;;;22.40;60.00;;;;;;5065851;28;20400;-90
2023/10/10 15:52:21;;;;;;;;;;;22.30;59.30;;;;;;5067707;28;19921;-88
2023/10/10 15:54:50;;;;;;;;;;;22.30;59.30;;;;;;5071008;28;20000;-88
2023/10/10 15:57:16;;;;;;;;;;;22.20;60.30;;;;;;5066693;28;19916;-88
2023/10/10 15:59:41;;;;;;;;;;;22.10;60.10;;;;;;5071731;28;19929;-87
2023/10/10 16:02:09;;;;;;;;;;;22.00;61.40;;;;;;5070858;28;20011;-88
2023/10/10 16:04:35;;;;;;;;;;;22.00;61.80;;;;;;5067683;28;20014;-89
2023/10/10 16:07:01;;;;;;;;;;;21.80;60.70;;;;;;5073516;28;19951;-88
2023/10/10 16:09:30;;;;;;;;;;;21.90;59.40;;;;;;5068402;28;19913;-85
2023/10/10 16:11:55;;;;;;;;;;;21.80;60.60;;;;;;5066322;28;20011;-86
2023/10/10 16:14:21;;;;;;;;;;;21.80;60.40;;;;;;5067100;28;20338;-84
2023/10/10 16:16:48;;;;;;;;;;;21.80;60.40;;;;;;5075124;28;19913;-82
2023/10/10 16:19:25;;;;;;;;;;;21.80;59.90;;;;;;5070137;28;19916;-82
2023/10/10 16:21:53;;;;;;;;;;;21.70;60.10;;;;;;5070248;28;20369;-82
2023/10/10 16:24:18;;;;;;;;;;;21.80;60.10;;;;;;5071291;28;19919;-82
2023/10/10 16:26:44;;;;;;;;;;;21.80;59.10;;;;;;5072158;28;19913;-82
2023/10/10 16:29:19;;;;;;;;;;;21.90;58.50;;;;;;5096601;28;19912;-84
2023/10/10 16:31:45;;;;;;;;;;;21.90;58.60;;;;;;5081265;28;19912;-86
2023/10/10 16:34:11;;;;;;;;;;;21.80;59.20;;;;;;5075851;28;20325;-88
2023/10/10 16:36:36;;;;;;;;;;;21.80;57.70;;;;;;5069719;28;19912;-86
2023/10/10 16:39:05;;;;;;;;;;;21.70;58.30;;;;;;5076183;28;19919;-85
2023/10/10 16:41:34;;;;;;;;;;;21.70;58.20;;;;;;5067549;28;19923;-87
2023/10/10 16:43:59;;;;;;;;;;;21.60;59.30;;;;;;5076415;28;19912;-85
2023/10/10 16:46:31;;;;;;;;;;;21.50;59.50;;;;;;5069785;28;20006;-86
2023/10/10 16:48:57;;;;;;;;;;;21.40;59.00;;;;;;5071640;28;20003;-86
2023/10/10 16:51:26;;;;;;;;;;;21.30;60.10;;;;;;5071567;28;19987;-86
2023/10/10 16:53:53;;;;;;;;;;;21.20;60.40;;;;;;5071454;28;19947;-85
2023/10/10 16:56:21;;;;;;;;;;;21.10;61.30;;;;;;5074615;28;19913;-85
2023/10/10 16:58:47;;;;;;;;;;;21.00;62.70;;;;;;5077314;28;19919;-85
2023/10/10 17:01:12;;;;;;;;;;;20.80;63.10;;;;;;5077404;28;19944;-85
2023/10/10 17:03:38;;;;;;;;;;;20.70;62.50;;;;;;5078990;28;19912;-86